createdAt,value
2023-04-05T00:00:09.846Z,3.96
2023-04-05T00:02:40.656Z,3.87
2023-04-05T00:05:09.756Z,3.94
2023-04-05T00:07:39.480Z,3.92
2023-04-05T00:10:07.784Z,3.86
2023-04-05T00:12:35.261Z,3.55
2023-04-05T00:15:04.592Z,3.00
2023-04-05T00:17:32.167Z,2.72
2023-04-05T00:19:59.890Z,2.62
2023-04-05T00:22:31.746Z,2.41
2023-04-05T00:25:00.690Z,2.45
2023-04-05T00:27:28.400Z,2.46
2023-04-05T00:29:56.105Z,2.70
2023-04-05T00:32:24.039Z,2.89
2023-04-05T00:34:51.919Z,2.85
2023-04-05T00:37:19.433Z,2.97
2023-04-05T00:39:46.938Z,2.89
2023-04-05T00:42:15.860Z,2.53
2023-04-05T00:44:43.457Z,2.52
2023-04-05T00:47:10.975Z,2.17
2023-04-05T00:49:38.850Z,2.10
2023-04-05T00:52:06.625Z,2.19
2023-04-05T00:54:34.197Z,2.26
2023-04-05T00:57:01.988Z,1.98
2023-04-05T00:59:30.843Z,1.95
2023-04-05T01:02:04.891Z,1.79
2023-04-05T01:04:33.969Z,1.67
2023-04-05T01:07:07.184Z,1.63
2023-04-05T01:09:38.940Z,1.51
2023-04-05T01:12:08.470Z,1.46
2023-04-05T01:14:49.951Z,1.26
2023-04-05T01:17:21.971Z,1.36
2023-04-05T01:19:53.186Z,1.47
2023-04-05T01:22:43.790Z,1.44
2023-04-05T01:25:49.243Z,1.16
2023-04-05T01:28:29.411Z,1.02
2023-04-05T01:31:03.237Z,0.87
2023-04-05T01:33:36.446Z,0.91
2023-04-05T01:36:07.945Z,0.88
2023-04-05T01:38:37.993Z,0.83
2023-04-05T01:41:05.652Z,0.88
2023-04-05T01:43:33.237Z,0.78
2023-04-05T01:46:02.166Z,0.68
2023-04-05T01:48:29.718Z,0.47
2023-04-05T01:50:57.161Z,0.36
2023-04-05T01:53:24.634Z,0.35
2023-04-05T01:55:52.100Z,0.35
2023-04-05T01:58:19.560Z,0.26
2023-04-05T02:00:47.153Z,0.25
2023-04-05T02:03:16.241Z,0.30
2023-04-05T02:05:44.116Z,0.22
2023-04-05T02:08:11.692Z,0.15
2023-04-05T02:10:39.513Z,0.14
2023-04-05T02:13:07.341Z,0.09
2023-04-05T02:15:35.162Z,0.03
2023-04-05T02:18:03.640Z,-0.06
2023-04-05T02:20:32.897Z,0.01
2023-04-05T02:23:00.522Z,0.06
2023-04-05T02:25:28.001Z,0.10
2023-04-05T02:27:55.459Z,0.29
2023-04-05T02:30:22.892Z,0.25
2023-04-05T02:32:50.389Z,0.18
2023-04-05T02:35:18.242Z,0.03
2023-04-05T02:37:47.177Z,-0.08
2023-04-05T02:40:15.786Z,-0.12
2023-04-05T02:42:43.255Z,0.01
2023-04-05T02:45:11.431Z,-0.12
2023-04-05T02:47:39.952Z,-0.20
2023-04-05T02:50:08.437Z,-0.18
2023-04-05T02:52:37.464Z,-0.14
2023-04-05T02:55:07.301Z,-0.08
2023-04-05T02:57:34.764Z,-0.14
2023-04-05T03:00:02.450Z,-0.15
2023-04-05T03:02:29.995Z,-0.23
2023-04-05T03:04:57.541Z,-0.20
2023-04-05T03:07:26.564Z,-0.16
2023-04-05T03:09:54.279Z,-0.21
2023-04-05T03:12:23.100Z,-0.28
2023-04-05T03:14:50.651Z,-0.31
2023-04-05T03:17:18.208Z,-0.33
2023-04-05T03:19:46.395Z,-0.43
2023-04-05T03:22:13.903Z,-0.52
2023-04-05T03:24:42.442Z,-0.48
2023-04-05T03:27:09.981Z,-0.34
2023-04-05T03:29:38.758Z,-0.33
2023-04-05T03:32:06.496Z,-0.08
2023-04-05T03:34:33.969Z,0.14
2023-04-05T03:37:01.492Z,0.62
2023-04-05T03:39:29.265Z,0.73
2023-04-05T03:41:57.496Z,0.79
2023-04-05T03:44:24.989Z,0.78
2023-04-05T03:46:53.911Z,0.83
2023-04-05T03:49:21.900Z,0.80
2023-04-05T03:51:49.463Z,0.92
2023-04-05T03:54:17.018Z,0.89
2023-04-05T03:56:44.567Z,0.84
2023-04-05T03:59:12.081Z,0.88
2023-04-05T04:01:39.587Z,0.96
2023-04-05T04:04:08.452Z,1.01
2023-04-05T04:06:37.190Z,1.02
2023-04-05T04:09:05.650Z,1.05
2023-04-05T04:11:33.090Z,1.05
2023-04-05T04:14:00.652Z,1.06
2023-04-05T04:16:29.042Z,1.05
2023-04-05T04:18:56.943Z,1.06
2023-04-05T04:21:25.710Z,1.06
2023-04-05T04:23:53.179Z,1.08
2023-04-05T04:26:28.687Z,1.10
2023-04-05T04:28:56.224Z,1.06
2023-04-05T04:31:23.733Z,1.10
2023-04-05T04:33:51.624Z,1.06
2023-04-05T04:36:26.484Z,1.07
2023-04-05T04:38:55.362Z,1.06
2023-04-05T04:41:26.662Z,1.02
2023-04-05T04:43:54.957Z,1.02
2023-04-05T04:46:30.524Z,1.03
2023-04-05T04:48:58.666Z,1.06
2023-04-05T04:51:26.169Z,1.06
2023-04-05T04:53:55.174Z,0.99
2023-04-05T04:56:22.634Z,1.01
2023-04-05T04:58:50.139Z,0.97
2023-04-05T05:01:17.723Z,0.99
2023-04-05T05:03:45.446Z,1.00
2023-04-05T05:06:12.928Z,0.99
2023-04-05T05:08:40.438Z,0.98
2023-04-05T05:11:09.537Z,0.99
2023-04-05T05:13:37.243Z,0.97
2023-04-05T05:16:05.493Z,0.91
2023-04-05T05:18:32.961Z,0.93
2023-04-05T05:21:00.494Z,0.94
2023-04-05T05:23:28.537Z,1.01
2023-04-05T05:25:58.962Z,0.97
2023-04-05T05:28:30.242Z,0.96
2023-04-05T05:30:57.800Z,1.06
2023-04-05T05:33:25.645Z,0.97
2023-04-05T05:35:53.105Z,0.97
2023-04-05T05:38:20.627Z,1.03
2023-04-05T05:40:48.108Z,1.08
2023-04-05T05:43:16.213Z,1.14
2023-04-05T05:45:45.039Z,1.16
2023-04-05T05:48:12.531Z,1.22
2023-04-05T05:50:40.596Z,1.16
2023-04-05T05:53:08.370Z,1.21
2023-04-05T05:55:35.898Z,1.33
2023-04-05T05:58:03.736Z,1.39
2023-04-05T06:00:31.403Z,1.49
2023-04-05T06:03:01.621Z,1.47
2023-04-05T06:05:29.211Z,1.55
2023-04-05T06:07:56.708Z,1.59
2023-04-05T06:10:25.533Z,1.57
2023-04-05T06:12:52.982Z,1.61
2023-04-05T06:15:20.506Z,1.62
2023-04-05T06:17:48.037Z,1.66
2023-04-05T06:20:17.110Z,1.77
2023-04-05T06:22:44.577Z,1.87
2023-04-05T06:25:12.965Z,1.92
2023-04-05T06:27:40.534Z,1.90
2023-04-05T06:30:09.272Z,1.93
2023-04-05T06:32:36.958Z,2.02
2023-04-05T06:35:05.022Z,2.09
2023-04-05T06:37:33.887Z,2.14
2023-04-05T06:40:01.351Z,2.22
2023-04-05T06:42:28.936Z,2.27
2023-04-05T06:44:56.428Z,2.29
2023-04-05T06:47:23.926Z,2.42
2023-04-05T06:49:51.493Z,2.51
2023-04-05T06:52:18.959Z,2.59
2023-04-05T06:54:47.753Z,2.64
2023-04-05T06:57:15.286Z,2.73
2023-04-05T06:59:42.757Z,2.74
2023-04-05T07:02:10.398Z,2.77
2023-04-05T07:04:37.924Z,2.82
2023-04-05T07:07:06.161Z,2.93
2023-04-05T07:09:34.206Z,2.96
2023-04-05T07:12:06.411Z,3.00
2023-04-05T07:14:34.932Z,3.03
2023-04-05T07:17:02.651Z,3.06
2023-04-05T07:19:30.273Z,3.13
2023-04-05T07:21:57.940Z,3.18
2023-04-05T07:24:25.511Z,3.22
2023-04-05T07:26:53.192Z,3.34
2023-04-05T07:29:22.084Z,3.40
2023-04-05T07:31:49.599Z,3.41
2023-04-05T07:34:19.966Z,3.54
2023-04-05T07:36:47.860Z,3.56
2023-04-05T07:39:15.857Z,3.55
2023-04-05T07:41:43.476Z,3.62
2023-04-05T07:44:11.445Z,3.74
2023-04-05T07:46:45.119Z,3.77
2023-04-05T07:49:14.540Z,3.79
2023-04-05T07:51:43.330Z,3.91
2023-04-05T07:54:10.872Z,3.92
2023-04-05T07:56:38.364Z,3.95
2023-04-05T07:59:05.903Z,4.07
2023-04-05T08:01:33.397Z,4.08
2023-04-05T08:04:02.238Z,4.12
2023-04-05T08:06:29.787Z,4.13
2023-04-05T08:08:57.283Z,4.15
2023-04-05T08:11:26.106Z,4.25
2023-04-05T08:13:54.423Z,4.27
2023-04-05T08:16:21.919Z,4.42
2023-04-05T08:18:49.477Z,4.48
2023-04-05T08:21:18.342Z,4.45
2023-04-05T08:23:45.970Z,4.54
2023-04-05T08:26:13.686Z,4.54
2023-04-05T08:28:41.187Z,4.49
2023-04-05T08:31:08.848Z,4.65
2023-04-05T08:33:36.777Z,4.67
2023-04-05T08:36:08.231Z,4.72
2023-04-05T08:38:37.269Z,4.73
2023-04-05T08:41:09.466Z,4.87
2023-04-05T08:43:49.407Z,4.83
2023-04-05T08:46:17.436Z,4.96
2023-04-05T08:48:44.922Z,5.00
2023-04-05T08:51:12.670Z,5.11
2023-04-05T08:53:41.515Z,5.17
2023-04-05T08:56:09.972Z,5.30
2023-04-05T08:58:38.656Z,5.35
2023-04-05T09:01:06.888Z,5.33
2023-04-05T09:03:37.469Z,5.45
2023-04-05T09:06:07.282Z,5.54
2023-04-05T09:08:34.859Z,5.56
2023-04-05T09:11:03.714Z,5.50
2023-04-05T09:13:32.016Z,5.58
2023-04-05T09:16:02.322Z,5.61
2023-04-05T09:18:29.901Z,5.63
2023-04-05T09:20:58.752Z,5.58
2023-04-05T09:23:26.620Z,5.64
2023-04-05T09:25:54.142Z,5.74
2023-04-05T09:28:22.943Z,5.79
2023-04-05T09:30:50.460Z,5.77
2023-04-05T09:33:21.120Z,5.93
2023-04-05T09:35:50.877Z,6.13
2023-04-05T09:38:18.383Z,6.13
2023-04-05T09:40:47.076Z,6.00
2023-04-05T09:43:16.152Z,6.10
2023-04-05T09:45:46.028Z,6.24
2023-04-05T09:48:13.627Z,6.35
2023-04-05T09:50:41.395Z,6.49
2023-04-05T09:53:15.561Z,6.49
2023-04-05T09:55:43.641Z,6.44
2023-04-05T09:58:13.293Z,6.50
2023-04-05T10:01:03.262Z,6.56
2023-04-05T10:03:47.732Z,6.36
2023-04-05T10:06:15.553Z,6.46
2023-04-05T10:08:43.135Z,6.57
2023-04-05T10:11:13.478Z,6.56
2023-04-05T10:13:41.307Z,6.56
2023-04-05T10:16:13.338Z,6.55
2023-04-05T10:18:46.183Z,6.69
2023-04-05T10:21:16.513Z,6.77
2023-04-05T10:23:45.621Z,6.90
2023-04-05T10:26:17.924Z,6.94
2023-04-05T10:28:48.543Z,6.98
2023-04-05T10:31:36.385Z,6.98
2023-04-05T10:34:07.029Z,6.92
2023-04-05T10:36:40.735Z,7.08
2023-04-05T10:39:13.822Z,7.18
2023-04-05T10:41:44.043Z,7.17
2023-04-05T10:44:25.104Z,7.21
2023-04-05T10:46:56.331Z,7.10
2023-04-05T10:49:30.567Z,6.87
2023-04-05T10:51:58.547Z,7.11
2023-04-05T10:54:26.134Z,7.14
2023-04-05T10:56:54.088Z,7.23
2023-04-05T10:59:21.944Z,7.26
2023-04-05T11:01:49.889Z,7.32
2023-04-05T11:04:18.987Z,7.26
2023-04-05T11:06:47.957Z,7.28
2023-04-05T11:09:17.436Z,7.31
2023-04-05T11:11:46.299Z,7.29
2023-04-05T11:14:23.512Z,7.46
2023-04-05T11:16:55.329Z,7.54
2023-04-05T11:20:01.848Z,7.38
2023-04-05T11:22:30.755Z,7.44
2023-04-05T11:25:01.733Z,7.57
2023-04-05T11:27:30.877Z,7.62
2023-04-05T11:29:59.620Z,7.42
2023-04-05T11:32:40.691Z,7.62
2023-04-05T11:35:14.722Z,7.70
2023-04-05T11:38:08.372Z,7.88
2023-04-05T11:40:36.700Z,8.03
2023-04-05T11:43:06.061Z,7.86
2023-04-05T11:45:34.355Z,7.75
2023-04-05T11:48:02.538Z,7.72
2023-04-05T11:50:31.384Z,7.70
2023-04-05T11:53:22.943Z,7.72
2023-04-05T11:55:51.759Z,7.78
2023-04-05T11:58:21.369Z,7.89
2023-04-05T12:00:59.219Z,7.87
2023-04-05T12:03:28.860Z,7.98
2023-04-05T12:05:59.624Z,8.06
2023-04-05T12:08:39.787Z,8.08
2023-04-05T12:11:08.698Z,8.08
2023-04-05T12:13:36.626Z,8.20
2023-04-05T12:16:05.932Z,8.44
2023-04-05T12:18:34.458Z,8.49
2023-04-05T12:21:07.329Z,8.56
2023-04-05T12:23:35.856Z,8.49
2023-04-05T12:26:04.057Z,8.49
2023-04-05T12:28:53.464Z,8.62
2023-04-05T12:31:36.682Z,8.69
2023-04-05T12:34:04.235Z,8.65
2023-04-05T12:36:33.243Z,8.66
2023-04-05T12:39:00.908Z,8.62
2023-04-05T12:41:29.762Z,8.61
2023-04-05T12:44:01.438Z,8.60
2023-04-05T12:46:40.294Z,8.84
2023-04-05T12:49:07.907Z,8.83
2023-04-05T12:51:36.741Z,8.93
2023-04-05T12:54:04.934Z,8.96
2023-04-05T12:56:32.495Z,8.92
2023-04-05T12:59:00.303Z,9.15
2023-04-05T13:01:27.833Z,9.34
2023-04-05T13:04:01.884Z,9.29
2023-04-05T13:06:41.777Z,9.41
2023-04-05T13:09:09.240Z,9.49
2023-04-05T13:11:36.712Z,9.51
2023-04-05T13:14:04.285Z,9.57
2023-04-05T13:16:31.771Z,9.44
2023-04-05T13:18:59.394Z,9.37
2023-04-05T13:21:27.169Z,9.35
2023-04-05T13:23:55.969Z,9.25
2023-04-05T13:26:23.508Z,9.01
2023-04-05T13:28:51.020Z,9.02
2023-04-05T13:31:18.545Z,9.16
2023-04-05T13:33:46.125Z,9.15
2023-04-05T13:36:13.629Z,8.89
2023-04-05T13:38:41.121Z,9.08
2023-04-05T13:41:09.981Z,9.14
2023-04-05T13:43:37.517Z,9.29
2023-04-05T13:46:05.705Z,9.25
2023-04-05T13:48:33.143Z,9.28
2023-04-05T13:51:00.595Z,9.14
2023-04-05T13:53:28.708Z,9.14
2023-04-05T13:55:56.399Z,9.27
2023-04-05T13:58:25.218Z,9.26
2023-04-05T14:00:53.440Z,9.53
2023-04-05T14:03:21.160Z,9.59
2023-04-05T14:05:50.681Z,9.63
2023-04-05T14:08:19.594Z,9.70
2023-04-05T14:10:47.049Z,9.82
2023-04-05T14:13:16.240Z,9.79
2023-04-05T14:15:45.068Z,9.90
2023-04-05T14:18:12.634Z,9.91
2023-04-05T14:20:40.478Z,9.83
2023-04-05T14:23:08.240Z,9.80
2023-04-05T14:25:35.712Z,9.81
2023-04-05T14:28:03.422Z,9.76
2023-04-05T14:30:31.164Z,9.65
2023-04-05T14:33:00.430Z,9.71
2023-04-05T14:35:28.077Z,9.70
2023-04-05T14:37:55.613Z,9.77
2023-04-05T14:40:23.240Z,9.75
2023-04-05T14:42:50.932Z,9.89
2023-04-05T14:45:18.792Z,10.07
2023-04-05T14:47:46.314Z,9.97
2023-04-05T14:50:15.243Z,9.81
2023-04-05T14:52:42.722Z,9.90
2023-04-05T14:55:12.300Z,9.88
2023-04-05T14:57:39.806Z,9.88
2023-04-05T15:00:08.998Z,9.95
2023-04-05T15:02:37.802Z,10.01
2023-04-05T15:05:06.223Z,9.96
2023-04-05T15:07:35.046Z,10.04
2023-04-05T15:10:02.563Z,10.00
2023-04-05T15:12:30.034Z,10.15
2023-04-05T15:14:57.625Z,10.25
2023-04-05T15:17:25.529Z,10.31
2023-04-05T15:19:53.013Z,10.30
2023-04-05T15:22:23.328Z,10.22
2023-04-05T15:24:52.194Z,10.37
2023-04-05T15:27:19.678Z,10.30
2023-04-05T15:29:47.176Z,10.30
2023-04-05T15:32:14.643Z,10.23
2023-04-05T15:34:42.105Z,9.99
2023-04-05T15:37:10.170Z,10.05
2023-04-05T15:39:37.728Z,10.30
2023-04-05T15:42:06.757Z,10.36
2023-04-05T15:44:34.306Z,10.31
2023-04-05T15:47:03.549Z,10.22
2023-04-05T15:49:31.062Z,10.22
2023-04-05T15:52:00.018Z,10.27
2023-04-05T15:54:27.589Z,10.25
2023-04-05T15:56:55.164Z,10.13
2023-04-05T15:59:23.993Z,10.20
2023-04-05T16:01:51.618Z,10.23
2023-04-05T16:04:19.318Z,10.17
2023-04-05T16:06:46.863Z,10.21
2023-04-05T16:09:14.310Z,10.07
2023-04-05T16:11:41.773Z,10.12
2023-04-05T16:14:11.353Z,10.08
2023-04-05T16:16:52.397Z,10.31
2023-04-05T16:19:21.915Z,10.30
2023-04-05T16:21:49.529Z,10.38
2023-04-05T16:24:17.063Z,10.37
2023-04-05T16:26:44.615Z,10.38
2023-04-05T16:29:12.157Z,10.26
2023-04-05T16:31:41.019Z,10.22
2023-04-05T16:34:08.491Z,10.16
2023-04-05T16:36:36.209Z,10.15
2023-04-05T16:39:04.145Z,10.22
2023-04-05T16:41:31.829Z,10.06
2023-04-05T16:43:59.320Z,10.12
2023-04-05T16:46:30.582Z,10.21
2023-04-05T16:48:59.525Z,10.12
2023-04-05T16:51:27.417Z,10.03
2023-04-05T16:53:54.880Z,10.09
2023-04-05T16:56:22.788Z,10.00
2023-04-05T16:58:50.366Z,9.92
2023-04-05T17:01:18.027Z,10.00
2023-04-05T17:03:47.122Z,10.00
2023-04-05T17:06:16.712Z,9.92
2023-04-05T17:08:44.283Z,9.89
2023-04-05T17:11:11.751Z,9.91
2023-04-05T17:13:39.291Z,9.80
2023-04-05T17:16:07.802Z,9.70
2023-04-05T17:18:35.481Z,9.88
2023-04-05T17:21:03.009Z,9.91
2023-04-05T17:23:31.800Z,9.86
2023-04-05T17:25:59.433Z,9.75
2023-04-05T17:28:26.988Z,9.68
2023-04-05T17:30:54.548Z,9.63
2023-04-05T17:33:22.055Z,9.57
2023-04-05T17:35:50.074Z,9.60
2023-04-05T17:38:17.571Z,9.56
2023-04-05T17:40:46.397Z,9.48
2023-04-05T17:43:14.103Z,9.43
2023-04-05T17:45:41.675Z,9.47
2023-04-05T17:48:09.423Z,9.36
2023-04-05T17:50:37.136Z,9.31
2023-04-05T17:53:04.841Z,9.25
2023-04-05T17:55:33.564Z,9.21
2023-04-05T17:58:02.440Z,9.19
2023-04-05T18:00:29.991Z,9.10
2023-04-05T18:02:57.521Z,9.03
2023-04-05T18:05:27.005Z,8.97
2023-04-05T18:07:54.571Z,8.86
2023-04-05T18:10:23.412Z,8.85
2023-04-05T18:12:51.521Z,8.77
2023-04-05T18:15:20.625Z,8.73
2023-04-05T18:17:48.129Z,8.74
2023-04-05T18:20:15.628Z,8.68
2023-04-05T18:22:43.224Z,8.81
2023-04-05T18:25:11.745Z,8.59
2023-04-05T18:27:39.314Z,8.27
2023-04-05T18:30:08.278Z,7.93
2023-04-05T18:32:37.263Z,7.85
2023-04-05T18:35:05.259Z,7.69
2023-04-05T18:37:32.777Z,7.56
2023-04-05T18:40:00.382Z,7.43
2023-04-05T18:42:27.840Z,7.52
2023-04-05T18:44:55.582Z,7.42
2023-04-05T18:47:23.331Z,7.39
2023-04-05T18:49:52.221Z,7.30
2023-04-05T18:52:23.641Z,7.12
2023-04-05T18:54:51.217Z,6.91
2023-04-05T18:57:18.818Z,6.57
2023-04-05T18:59:46.358Z,6.35
2023-04-05T19:02:13.887Z,6.33
2023-04-05T19:04:41.388Z,6.30
2023-04-05T19:07:10.216Z,6.40
2023-04-05T19:09:38.448Z,6.17
2023-04-05T19:12:06.626Z,6.00
2023-04-05T19:14:34.772Z,5.88
2023-04-05T19:17:02.361Z,5.77
2023-04-05T19:19:30.042Z,5.73
2023-04-05T19:21:58.402Z,5.54
2023-04-05T19:24:27.737Z,5.35
2023-04-05T19:26:56.787Z,5.30
2023-04-05T19:29:24.346Z,5.22
2023-04-05T19:31:52.043Z,5.17
2023-04-05T19:34:19.718Z,5.02
2023-04-05T19:36:47.295Z,4.81
2023-04-05T19:39:14.831Z,4.70
2023-04-05T19:41:44.426Z,4.65
2023-04-05T19:44:12.966Z,4.68
2023-04-05T19:46:41.408Z,4.97
2023-04-05T19:49:10.914Z,5.15
2023-04-05T19:51:39.023Z,5.10
2023-04-05T19:54:11.682Z,4.98
2023-04-05T19:56:39.367Z,4.89
2023-04-05T19:59:25.947Z,4.80
2023-04-05T20:01:53.452Z,4.53
2023-04-05T20:04:22.552Z,4.22
2023-04-05T20:06:53.171Z,4.15
2023-04-05T20:09:21.253Z,4.14
2023-04-05T20:11:51.266Z,4.09
2023-04-05T20:14:21.163Z,4.25
2023-04-05T20:16:49.637Z,4.52
2023-04-05T20:19:17.433Z,4.29
2023-04-05T20:21:45.638Z,4.58
2023-04-05T20:24:16.580Z,4.32
2023-04-05T20:26:44.437Z,4.20
2023-04-05T20:29:16.753Z,3.94
2023-04-05T20:31:46.175Z,4.12
2023-04-05T20:34:15.365Z,3.94
2023-04-05T20:36:46.374Z,3.80
2023-04-05T20:39:13.850Z,3.43
2023-04-05T20:41:41.446Z,3.36
2023-04-05T20:44:08.923Z,3.16
2023-04-05T20:46:36.467Z,3.06
2023-04-05T20:49:05.752Z,3.03
2023-04-05T20:51:33.268Z,2.86
2023-04-05T20:54:01.145Z,2.82
2023-04-05T20:56:28.620Z,3.14
2023-04-05T20:58:56.386Z,3.35
2023-04-05T21:01:24.372Z,3.32
2023-04-05T21:03:53.046Z,3.23
2023-04-05T21:06:22.158Z,3.00
2023-04-05T21:08:49.630Z,2.85
2023-04-05T21:11:17.099Z,2.59
2023-04-05T21:13:44.536Z,2.48
2023-04-05T21:16:12.240Z,2.52
2023-04-05T21:18:39.966Z,2.58
2023-04-05T21:21:07.480Z,2.46
2023-04-05T21:23:36.426Z,2.26
2023-04-05T21:26:04.542Z,2.25
2023-04-05T21:28:32.147Z,2.11
2023-04-05T21:30:59.669Z,2.07
2023-04-05T21:33:27.221Z,2.01
2023-04-05T21:35:54.730Z,2.08
2023-04-05T21:38:22.212Z,2.26
2023-04-05T21:40:51.085Z,2.52
2023-04-05T21:43:18.580Z,2.80
2023-04-05T21:45:46.864Z,2.83
2023-04-05T21:48:14.350Z,2.68
2023-04-05T21:50:41.877Z,2.65
2023-04-05T21:53:09.671Z,2.52
2023-04-05T21:55:37.192Z,2.51
2023-04-05T21:58:06.158Z,2.07
2023-04-05T22:00:33.756Z,2.09
2023-04-05T22:03:01.297Z,2.10
2023-04-05T22:05:37.406Z,2.25
2023-04-05T22:08:07.220Z,2.23
2023-04-05T22:10:35.204Z,2.42
2023-04-05T22:13:02.764Z,2.35
2023-04-05T22:15:31.662Z,2.39
2023-04-05T22:17:59.325Z,1.99
2023-04-05T22:20:26.957Z,1.58
2023-04-05T22:22:54.521Z,1.49
2023-04-05T22:25:21.996Z,1.63
2023-04-05T22:27:49.490Z,2.09
2023-04-05T22:30:17.215Z,2.17
2023-04-05T22:32:46.668Z,2.02
2023-04-05T22:35:14.189Z,1.54
2023-04-05T22:37:41.719Z,1.27
2023-04-05T22:40:10.188Z,1.17
2023-04-05T22:42:38.814Z,1.36
2023-04-05T22:45:07.336Z,1.49
2023-04-05T22:47:34.843Z,1.36
2023-04-05T22:50:03.729Z,1.36
2023-04-05T22:52:31.190Z,1.34
2023-04-05T22:54:58.657Z,1.16
2023-04-05T23:00:21.585Z,1.06
2023-04-05T23:02:49.136Z,0.95
2023-04-05T23:05:18.135Z,0.96
2023-04-05T23:07:45.632Z,0.95
2023-04-05T23:10:13.122Z,1.40
2023-04-05T23:12:40.975Z,1.51
2023-04-05T23:15:09.134Z,1.49
2023-04-05T23:17:36.683Z,1.50
2023-04-05T23:20:05.689Z,1.13
2023-04-05T23:22:35.964Z,0.96
2023-04-05T23:25:04.343Z,0.92
2023-04-05T23:27:32.032Z,0.93
2023-04-05T23:29:59.731Z,0.95
2023-04-05T23:32:27.296Z,1.08
2023-04-05T23:34:54.790Z,0.95
2023-04-05T23:37:22.254Z,1.13
2023-04-05T23:39:51.081Z,1.15
2023-04-05T23:42:18.537Z,1.21
2023-04-05T23:44:46.021Z,1.32
2023-04-05T23:47:13.506Z,1.08
2023-04-05T23:49:41.076Z,1.03
2023-04-05T23:52:08.687Z,0.92
2023-04-05T23:54:36.158Z,0.99
2023-04-05T23:57:05.150Z,1.02
2023-04-05T23:59:32.673Z,1.02
